Kaiser — NHJK — position and weather

sailwx.info

Track history (hours):
 
Tides and Currents Weather Stations Pressure Air Temp Water Temp Dewpoint Dewpoint Depression Visibility Wind Speed Wind Dir Waves Ship Positions

Kaiser

Last reported at 2015-May-06 13:33 UTC. Time now 2015-May-06 14:31 UTC.
Position N 32°29' W 117°29'.

Length 207 m; draft 8.5 m.

Type: Tanker. MMSI: 303849000.

Date/timePositionNaut miles runAvg speedWind from/ knotsBaromVisibWave heightAir tempDewpointWater temp
2015-May-06 13:33N 32°29' W 117°29'1 0.8
2015-May-06 12:33N 32°30' W 117°28'1110.8
2015-May-06 11:32N 32°36' W 117°39'1111.3
2015-May-06 10:33N 32°36' W 117°53'1211.5
2015-May-06 09:33N 32°36' W 118°06'1311.2
2015-May-06 08:22N 32°36' W 118°22'41 4.1
2015-May-05 22:27N 32°37' W 119°11'2813.4
2015-May-05 20:20N 32°37' W 118°37'1013.0
2015-May-05 19:33N 32°37' W 118°25'1713.1
2015-May-05 18:15N 32°36' W 118°05'912.7
2015-May-05 17:33N 32°36' W 117°54'9 8.9
2015-May-05 16:33N 32°37' W 117°44'10 9.5
2015-May-05 15:33N 32°37' W 117°55'3 0.5
2015-May-05 10:17N 32°36' W 117°58'7 9.1
2015-May-05 09:33N 32°37' W 117°51'5 4.7
2015-May-05 08:33N 32°36' W 117°45'9 9.1
2015-May-05 07:31N 32°36' W 117°56'9 9.0
2015-May-05 06:32N 32°36' W 118°07'7 6.8
2015-May-05 05:28N 32°36' W 118°15'8 9.2
2015-May-05 04:33N 32°36' W 118°05'9 9.0
2015-May-05 03:33N 32°36' W 117°55'9 9.5
2015-May-05 02:33N 32°36' W 117°43'5 5.0
2015-May-05 01:33N 32°36' W 117°49'1211.3
2015-May-05 00:31N 32°36' W 118°03'21 8.9
2015-May-04 22:10N 32°36' W 118°28'1013.3
2015-May-04 21:27N 32°36' W 118°17'1112.8
2015-May-04 20:33N 32°36' W 118°03'1212.0
2015-May-04 19:33N 32°36' W 117°49'1111.3
2015-May-04 18:33N 32°36' W 117°36'1312.8
2015-May-04 17:33N 32°36' W 117°20'9 8.6
2015-May-04 16:33N 32°42' W 117°14'2 2.0
2015-May-04 15:32N 32°42' W 117°11'0 0.0
2015-May-04 14:32N 32°42' W 117°11'0 0.0
2015-May-04 13:32N 32°42' W 117°11'0 0.0
2015-May-04 12:32N 32°42' W 117°11'0 0.0
2015-May-04 11:32N 32°42' W 117°11'0 0.1
2015-May-04 10:32N 32°42' W 117°11'0 0.1
2015-May-04 09:32N 32°42' W 117°11'0 0.0
2015-May-04 08:32N 32°42' W 117°11'0 0.0
2015-May-04 07:32N 32°42' W 117°11'0 0.0
2015-May-04 06:32N 32°42' W 117°11'0 0.0
2015-May-04 05:32N 32°42' W 117°11'0 0.0
2015-May-04 04:32N 32°42' W 117°11'0 0.0
2015-May-04 03:32N 32°42' W 117°11'0 0.0
2015-May-04 02:32N 32°42' W 117°11'0 0.0
2015-May-04 01:32N 32°42' W 117°11'0 0.0
2015-May-04 00:32N 32°42' W 117°11'0 0.0
2015-May-03 23:32N 32°42' W 117°11'0 0.0
2015-May-03 22:32N 32°42' W 117°11'0 0.0
2015-May-03 21:32N 32°42' W 117°11'0 0.0
2015-May-03 20:32N 32°42' W 117°11'0 0.0
2015-May-03 19:32N 32°42' W 117°11'0 0.0
2015-May-03 18:32N 32°42' W 117°11'0 0.0
2015-May-03 17:32N 32°42' W 117°11'0 0.0
2015-May-03 16:32N 32°42' W 117°11'0 0.0
2015-May-03 15:32N 32°42' W 117°11'0 0.0
2015-May-03 14:32N 32°42' W 117°11'0 0.0
2015-May-03 13:32N 32°42' W 117°11'0 0.0
2015-May-03 12:32N 32°42' W 117°11'0 0.0
2015-May-03 11:32N 32°42' W 117°11'0 0.0
2015-May-03 10:32N 32°42' W 117°11'0 0.0
2015-May-03 09:32N 32°42' W 117°11'0 0.0
2015-May-03 08:32N 32°42' W 117°11'0 0.0
2015-May-03 07:32N 32°42' W 117°11'0 0.0
2015-May-03 06:32N 32°42' W 117°11'0 0.0
2015-May-03 05:32N 32°42' W 117°11'0 0.0
2015-May-03 04:29N 32°42' W 117°11'0 0.0
2015-May-03 03:32N 32°42' W 117°11'0 0.0
2015-May-03 02:32N 32°42' W 117°11'0 0.0
2015-May-03 01:32N 32°42' W 117°11'0 0.0
2015-May-03 00:32N 32°42' W 117°11'0 0.0
2015-May-02 23:32N 32°42' W 117°11'0 0.0
2015-May-02 22:32N 32°42' W 117°11'0 0.0
2015-May-02 21:32N 32°42' W 117°11'0 0.0
2015-May-02 20:32N 32°42' W 117°11'0 0.0
2015-May-02 19:32N 32°42' W 117°11'0 0.0
2015-May-02 18:32N 32°42' W 117°11'0 0.0
2015-May-02 17:32N 32°42' W 117°11'0 0.0
2015-May-02 16:32N 32°42' W 117°11'0 0.0
2015-May-02 15:32N 32°42' W 117°11'0 0.0
2015-May-02 14:32N 32°42' W 117°11'0 0.0
2015-May-02 13:32N 32°42' W 117°11'0 0.0
2015-May-02 12:32N 32°42' W 117°11'0 0.0
2015-May-02 11:32N 32°42' W 117°11'0 0.0
2015-May-02 10:32N 32°42' W 117°11'0 0.0
2015-May-02 09:32N 32°42' W 117°11'0 0.0
2015-May-02 08:32N 32°42' W 117°11'0 0.0
2015-May-02 07:32N 32°42' W 117°11'0 0.0
2015-May-02 06:32N 32°42' W 117°11'0 0.0
2015-May-02 05:32N 32°42' W 117°11'0 0.0
2015-May-02 04:29N 32°42' W 117°11'0 0.0
2015-May-02 03:29N 32°42' W 117°11'0 0.0
2015-May-02 02:32N 32°42' W 117°11'0 0.0
2015-May-02 01:32N 32°42' W 117°11'0 0.0
2015-May-02 00:32N 32°42' W 117°11'0 0.4
2015-May-01 23:31N 32°43' W 117°11'7 7.3
2015-May-01 22:33N 32°36' W 117°13'1110.5
2015-May-01 21:33N 32°34' W 117°25'2 2.4
2015-May-01 20:33N 32°34' W 117°23'8 8.3
2015-May-01 19:33N 32°36' W 117°32'10 9.7
2015-May-01 18:33N 32°36' W 117°44'10 9.8
2015-May-01 17:33N 32°36' W 117°55'9 9.5
2015-May-01 16:33N 32°36' W 118°07'1212.2
2015-May-01 15:33N 32°36' W 118°21'1312.9
2015-May-01 14:33N 32°36' W 118°36'1312.7
2015-May-01 13:33N 32°36' W 118°51'4 3.5
2015-May-01 12:32N 32°36' W 118°56'9 9.7
2015-May-01 11:33N 32°36' W 118°45'7 7.4
2015-May-01 10:33N 32°36' W 118°36'2 1.5
2015-May-01 09:33N 32°36' W 118°38'10 9.5
2015-May-01 08:33N 32°36' W 118°49'9 9.1
2015-May-01 07:33N 32°36' W 118°60'9 9.1
2015-May-01 06:33N 32°36' W 118°49'9 9.2
2015-May-01 05:33N 32°36' W 118°38'7 7.3
2015-May-01 04:33N 32°36' W 118°29'10 9.6
2015-May-01 03:33N 32°36' W 118°41'10 9.7
2015-May-01 02:33N 32°36' W 118°52'4 4.2
2015-May-01 01:33N 32°36' W 118°57'9 8.7
2015-May-01 00:33N 32°36' W 118°47'9 8.9
2015-Apr-30 23:33N 32°36' W 118°36'9 8.6
2015-Apr-30 22:33N 32°36' W 118°26'8 8.1
2015-Apr-30 21:33N 32°36' W 118°36'10 9.8
2015-Apr-30 20:33N 32°36' W 118°47'10 9.7
2015-Apr-30 19:32N 32°37' W 118°59'92336.0
2015-Apr-30 19:16N 32°42' W 117°09'102142.7
2015-Apr-30 18:33N 32°38' W 119°11'1010.1
2015-Apr-30 17:33N 32°38' W 119°23'9 9.4
2015-Apr-30 16:33N 32°37' W 119°12'1212.2
2015-Apr-30 15:33N 32°37' W 118°57'7 7.4
2015-Apr-30 14:33N 32°36' W 118°48'1 1.3
2015-Apr-30 13:33N 32°36' W 118°50'1 1.4
2015-Apr-30 12:33N 32°36' W 118°51'4 3.7
2015-Apr-30 11:33N 32°36' W 118°56'8 8.3
2015-Apr-30 10:33N 32°36' W 118°46'1 1.2
2015-Apr-30 09:33N 32°36' W 118°45'4 4.0
2015-Apr-30 08:33N 32°36' W 118°40'1111.2
2015-Apr-30 07:33N 32°36' W 118°53'2 1.6
2015-Apr-30 06:33N 32°36' W 118°55'1111.5
2015-Apr-30 05:33N 32°36' W 118°42'1111.2
2015-Apr-30 04:33N 32°35' W 118°28'3 2.9
2015-Apr-30 03:34N 32°36' W 118°32'1111.3
2015-Apr-30 02:33N 32°36' W 118°45'1110.5
2015-Apr-30 01:33N 32°35' W 118°33'3 2.9
2015-Apr-30 00:33N 32°35' W 118°29'1211.6
2015-Apr-29 23:33N 32°36' W 118°43'1211.8
2015-Apr-29 22:33N 32°36' W 118°57'9 8.9
2015-Apr-29 21:33N 32°37' W 119°08'1212.2
2015-Apr-29 20:33N 32°37' W 118°53'1312.6
2015-Apr-29 19:33N 32°36' W 118°38'1312.8
2015-Apr-29 18:33N 32°36' W 118°23'1414.3
2015-Apr-29 17:33N 32°35' W 118°06'1312.8
2015-Apr-29 16:33N 32°36' W 118°21'1312.8
2015-Apr-29 15:33N 32°36' W 118°37'1313.0
2015-Apr-29 14:33N 32°36' W 118°52'2 2.4
2015-Apr-29 13:33N 32°37' W 118°55'10 9.7
2015-Apr-29 12:33N 32°36' W 118°43'9 8.6
2015-Apr-29 11:33N 32°38' W 118°54'1 1.0
2015-Apr-29 10:33N 32°38' W 118°52'10 9.7
2015-Apr-29 09:33N 32°38' W 118°41'10 9.9
2015-Apr-29 08:33N 32°38' W 118°29'8 7.9
2015-Apr-29 07:33N 32°37' W 118°39'9 9.2
2015-Apr-29 06:33N 32°38' W 118°50'9 8.5
2015-Apr-29 05:33N 32°38' W 118°60'9 9.3
2015-Apr-29 04:33N 32°38' W 118°49'9 9.4
2015-Apr-29 03:33N 32°38' W 118°38'9 9.0
2015-Apr-29 02:33N 32°37' W 118°27'5 4.9
2015-Apr-29 01:33N 32°36' W 118°32'1010.0
2015-Apr-29 00:32N 32°36' W 118°45'7 7.6
2015-Apr-28 23:33N 32°35' W 118°53'1312.7
2015-Apr-28 22:33N 32°35' W 118°38'1312.7
2015-Apr-28 21:33N 32°35' W 118°23'1212.6
2015-Apr-28 20:33N 32°36' W 118°08'1211.9
2015-Apr-28 19:33N 32°36' W 117°54'1 0.5
2015-Apr-28 18:33N 32°37' W 117°54'8 8.5
2015-Apr-28 17:33N 32°38' W 117°44'6 5.7
2015-Apr-28 16:33N 32°39' W 117°37'6 6.3
2015-Apr-28 15:33N 32°39' W 117°30'6 6.3
2015-Apr-28 14:33N 32°40' W 117°23'6 6.5
2015-Apr-28 13:33N 32°47' W 117°23'6 6.3
2015-Apr-28 12:33N 32°53' W 117°24'6 6.1
2015-Apr-28 11:33N 32°59' W 117°25'5 4.6
2015-Apr-28 10:33N 32°55' W 117°24'7 6.5
2015-Apr-28 09:33N 32°48' W 117°24'6 6.2
2015-Apr-28 08:33N 32°42' W 117°23'3 2.8
2015-Apr-28 07:33N 32°44' W 117°24'7 6.6
2015-Apr-28 06:33N 32°51' W 117°25'6 6.4
2015-Apr-28 05:33N 32°57' W 117°26'1 0.9
2015-Apr-28 04:33N 32°57' W 117°26'6 6.1
2015-Apr-28 03:33N 32°51' W 117°24'6 5.6
2015-Apr-28 02:33N 32°45' W 117°23'5 5.0
2015-Apr-28 01:33N 32°40' W 117°22'7 6.9
2015-Apr-28 00:33N 32°47' W 117°25'7 7.0
2015-Apr-27 23:34N 32°53' W 117°28'6 6.4
2015-Apr-27 22:33N 32°59' W 117°31'5 4.8
2015-Apr-27 21:33N 32°55' W 117°28'6 5.8
2015-Apr-27 20:33N 32°49' W 117°26'3 3.0
2015-Apr-27 19:33N 32°47' W 117°24'2 1.7
2015-Apr-27 18:33N 32°45' W 117°24'2 2.3
2015-Apr-27 17:33N 32°47' W 117°23'6 6.2
2015-Apr-27 16:33N 32°54' W 117°25'6 5.9
2015-Apr-27 15:33N 32°59' W 117°26'6 5.6
2015-Apr-27 14:33N 32°54' W 117°24'6 6.4
2015-Apr-27 13:33N 32°47' W 117°24'6 6.2
2015-Apr-27 12:33N 32°41' W 117°22'4 3.7
2015-Apr-27 11:33N 32°45' W 117°24'6 6.1
2015-Apr-27 10:33N 32°51' W 117°25'6 6.1
2015-Apr-27 09:33N 32°57' W 117°26'1 0.8
2015-Apr-27 08:33N 32°58' W 117°27'6 6.4
2015-Apr-27 07:33N 32°51' W 117°25'6 6.0
2015-Apr-27 06:33N 32°45' W 117°24'4 4.2
2015-Apr-27 05:33N 32°42' W 117°26'7 6.6
2015-Apr-27 04:33N 32°41' W 117°34'7 6.8
2015-Apr-27 03:33N 32°40' W 117°42'7 6.7
2015-Apr-27 02:33N 32°39' W 117°50'7 6.6
2015-Apr-27 01:32N 32°38' W 117°58'6 6.5
2015-Apr-27 00:33N 32°37' W 118°05'6 6.1
2015-Apr-26 23:33N 32°36' W 118°12'1918.0
2015-Apr-26 22:29N 32°35' W 118°35'2 1.9
2015-Apr-26 21:10N 32°36' W 118°32'812.7
2015-Apr-26 20:33N 32°36' W 118°23'1313.1
2015-Apr-26 19:33N 32°36' W 118°08'6 5.3
2015-Apr-26 18:24N 32°36' W 118°00'8 8.9
2015-Apr-26 17:33N 32°35' W 118°09'1211.3
2015-Apr-26 16:31N 32°35' W 118°23'  
Track history (hours):
 
Tides and Currents Weather Stations Pressure Air Temp Water Temp Dewpoint Dewpoint Depression Visibility Wind Speed Wind Dir Waves Ship Positions

Kaiser

Last reported at 2015-May-06 13:33 UTC. Time now 2015-May-06 14:31 UTC.
Position N 32°29' W 117°29'.

Length 207 m; draft 8.5 m.

Type: Tanker. MMSI: 303849000.

Date/timePositionNaut miles runAvg speedWind from/ knotsBaromVisibWave heightAir tempDewpointWater temp
2015-May-06 13:33N 32°29' W 117°29'1 0.8
2015-May-06 12:33N 32°30' W 117°28'1110.8
2015-May-06 11:32N 32°36' W 117°39'1111.3
2015-May-06 10:33N 32°36' W 117°53'1211.5
2015-May-06 09:33N 32°36' W 118°06'1311.2
2015-May-06 08:22N 32°36' W 118°22'41 4.1
2015-May-05 22:27N 32°37' W 119°11'2813.4
2015-May-05 20:20N 32°37' W 118°37'1013.0
2015-May-05 19:33N 32°37' W 118°25'1713.1
2015-May-05 18:15N 32°36' W 118°05'912.7
2015-May-05 17:33N 32°36' W 117°54'9 8.9
2015-May-05 16:33N 32°37' W 117°44'10 9.5
2015-May-05 15:33N 32°37' W 117°55'3 0.5
2015-May-05 10:17N 32°36' W 117°58'7 9.1
2015-May-05 09:33N 32°37' W 117°51'5 4.7
2015-May-05 08:33N 32°36' W 117°45'9 9.1
2015-May-05 07:31N 32°36' W 117°56'9 9.0
2015-May-05 06:32N 32°36' W 118°07'7 6.8
2015-May-05 05:28N 32°36' W 118°15'8 9.2
2015-May-05 04:33N 32°36' W 118°05'9 9.0
2015-May-05 03:33N 32°36' W 117°55'9 9.5
2015-May-05 02:33N 32°36' W 117°43'5 5.0
2015-May-05 01:33N 32°36' W 117°49'1211.3
2015-May-05 00:31N 32°36' W 118°03'21 8.9
2015-May-04 22:10N 32°36' W 118°28'1013.3
2015-May-04 21:27N 32°36' W 118°17'1112.8
2015-May-04 20:33N 32°36' W 118°03'1212.0
2015-May-04 19:33N 32°36' W 117°49'1111.3
2015-May-04 18:33N 32°36' W 117°36'1312.8
2015-May-04 17:33N 32°36' W 117°20'9 8.6
2015-May-04 16:33N 32°42' W 117°14'2 2.0
2015-May-04 15:32N 32°42' W 117°11'0 0.0
2015-May-04 14:32N 32°42' W 117°11'0 0.0
2015-May-04 13:32N 32°42' W 117°11'0 0.0
2015-May-04 12:32N 32°42' W 117°11'0 0.0
2015-May-04 11:32N 32°42' W 117°11'0 0.1
2015-May-04 10:32N 32°42' W 117°11'0 0.1
2015-May-04 09:32N 32°42' W 117°11'0 0.0
2015-May-04 08:32N 32°42' W 117°11'0 0.0
2015-May-04 07:32N 32°42' W 117°11'0 0.0
2015-May-04 06:32N 32°42' W 117°11'0 0.0
2015-May-04 05:32N 32°42' W 117°11'0 0.0
2015-May-04 04:32N 32°42' W 117°11'0 0.0
2015-May-04 03:32N 32°42' W 117°11'0 0.0
2015-May-04 02:32N 32°42' W 117°11'0 0.0
2015-May-04 01:32N 32°42' W 117°11'0 0.0
2015-May-04 00:32N 32°42' W 117°11'0 0.0
2015-May-03 23:32N 32°42' W 117°11'0 0.0
2015-May-03 22:32N 32°42' W 117°11'0 0.0
2015-May-03 21:32N 32°42' W 117°11'0 0.0
2015-May-03 20:32N 32°42' W 117°11'0 0.0
2015-May-03 19:32N 32°42' W 117°11'0 0.0
2015-May-03 18:32N 32°42' W 117°11'0 0.0
2015-May-03 17:32N 32°42' W 117°11'0 0.0
2015-May-03 16:32N 32°42' W 117°11'0 0.0
2015-May-03 15:32N 32°42' W 117°11'0 0.0
2015-May-03 14:32N 32°42' W 117°11'0 0.0
2015-May-03 13:32N 32°42' W 117°11'0 0.0
2015-May-03 12:32N 32°42' W 117°11'0 0.0
2015-May-03 11:32N 32°42' W 117°11'0 0.0
2015-May-03 10:32N 32°42' W 117°11'0 0.0
2015-May-03 09:32N 32°42' W 117°11'0 0.0
2015-May-03 08:32N 32°42' W 117°11'0 0.0
2015-May-03 07:32N 32°42' W 117°11'0 0.0
2015-May-03 06:32N 32°42' W 117°11'0 0.0
2015-May-03 05:32N 32°42' W 117°11'0 0.0
2015-May-03 04:29N 32°42' W 117°11'0 0.0
2015-May-03 03:32N 32°42' W 117°11'0 0.0
2015-May-03 02:32N 32°42' W 117°11'0 0.0
2015-May-03 01:32N 32°42' W 117°11'0 0.0
2015-May-03 00:32N 32°42' W 117°11'0 0.0
2015-May-02 23:32N 32°42' W 117°11'0 0.0
2015-May-02 22:32N 32°42' W 117°11'0 0.0
2015-May-02 21:32N 32°42' W 117°11'0 0.0
2015-May-02 20:32N 32°42' W 117°11'0 0.0
2015-May-02 19:32N 32°42' W 117°11'0 0.0
2015-May-02 18:32N 32°42' W 117°11'0 0.0
2015-May-02 17:32N 32°42' W 117°11'0 0.0
2015-May-02 16:32N 32°42' W 117°11'0 0.0
2015-May-02 15:32N 32°42' W 117°11'0 0.0
2015-May-02 14:32N 32°42' W 117°11'0 0.0
2015-May-02 13:32N 32°42' W 117°11'0 0.0
2015-May-02 12:32N 32°42' W 117°11'0 0.0
2015-May-02 11:32N 32°42' W 117°11'0 0.0
2015-May-02 10:32N 32°42' W 117°11'0 0.0
2015-May-02 09:32N 32°42' W 117°11'0 0.0
2015-May-02 08:32N 32°42' W 117°11'0 0.0
2015-May-02 07:32N 32°42' W 117°11'0 0.0
2015-May-02 06:32N 32°42' W 117°11'0 0.0
2015-May-02 05:32N 32°42' W 117°11'0 0.0
2015-May-02 04:29N 32°42' W 117°11'0 0.0
2015-May-02 03:29N 32°42' W 117°11'0 0.0
2015-May-02 02:32N 32°42' W 117°11'0 0.0
2015-May-02 01:32N 32°42' W 117°11'0 0.0
2015-May-02 00:32N 32°42' W 117°11'0 0.4
2015-May-01 23:31N 32°43' W 117°11'7 7.3
2015-May-01 22:33N 32°36' W 117°13'1110.5
2015-May-01 21:33N 32°34' W 117°25'2 2.4
2015-May-01 20:33N 32°34' W 117°23'8 8.3
2015-May-01 19:33N 32°36' W 117°32'10 9.7
2015-May-01 18:33N 32°36' W 117°44'10 9.8
2015-May-01 17:33N 32°36' W 117°55'9 9.5
2015-May-01 16:33N 32°36' W 118°07'1212.2
2015-May-01 15:33N 32°36' W 118°21'1312.9
2015-May-01 14:33N 32°36' W 118°36'1312.7
2015-May-01 13:33N 32°36' W 118°51'4 3.5
2015-May-01 12:32N 32°36' W 118°56'9 9.7
2015-May-01 11:33N 32°36' W 118°45'7 7.4
2015-May-01 10:33N 32°36' W 118°36'2 1.5
2015-May-01 09:33N 32°36' W 118°38'10 9.5
2015-May-01 08:33N 32°36' W 118°49'9 9.1
2015-May-01 07:33N 32°36' W 118°60'9 9.1
2015-May-01 06:33N 32°36' W 118°49'9 9.2
2015-May-01 05:33N 32°36' W 118°38'7 7.3
2015-May-01 04:33N 32°36' W 118°29'10 9.6
2015-May-01 03:33N 32°36' W 118°41'10 9.7
2015-May-01 02:33N 32°36' W 118°52'4 4.2
2015-May-01 01:33N 32°36' W 118°57'9 8.7
2015-May-01 00:33N 32°36' W 118°47'9 8.9
2015-Apr-30 23:33N 32°36' W 118°36'9 8.6
2015-Apr-30 22:33N 32°36' W 118°26'8 8.1
2015-Apr-30 21:33N 32°36' W 118°36'10 9.8
2015-Apr-30 20:33N 32°36' W 118°47'10 9.7
2015-Apr-30 19:32N 32°37' W 118°59'92336.0
2015-Apr-30 19:16N 32°42' W 117°09'102142.7
2015-Apr-30 18:33N 32°38' W 119°11'1010.1
2015-Apr-30 17:33N 32°38' W 119°23'9 9.4
2015-Apr-30 16:33N 32°37' W 119°12'1212.2
2015-Apr-30 15:33N 32°37' W 118°57'7 7.4
2015-Apr-30 14:33N 32°36' W 118°48'1 1.3
2015-Apr-30 13:33N 32°36' W 118°50'1 1.4
2015-Apr-30 12:33N 32°36' W 118°51'4 3.7
2015-Apr-30 11:33N 32°36' W 118°56'8 8.3
2015-Apr-30 10:33N 32°36' W 118°46'1 1.2
2015-Apr-30 09:33N 32°36' W 118°45'4 4.0
2015-Apr-30 08:33N 32°36' W 118°40'1111.2
2015-Apr-30 07:33N 32°36' W 118°53'2 1.6
2015-Apr-30 06:33N 32°36' W 118°55'1111.5
2015-Apr-30 05:33N 32°36' W 118°42'1111.2
2015-Apr-30 04:33N 32°35' W 118°28'3 2.9
2015-Apr-30 03:34N 32°36' W 118°32'1111.3
2015-Apr-30 02:33N 32°36' W 118°45'1110.5
2015-Apr-30 01:33N 32°35' W 118°33'3 2.9
2015-Apr-30 00:33N 32°35' W 118°29'1211.6
2015-Apr-29 23:33N 32°36' W 118°43'1211.8
2015-Apr-29 22:33N 32°36' W 118°57'9 8.9
2015-Apr-29 21:33N 32°37' W 119°08'1212.2
2015-Apr-29 20:33N 32°37' W 118°53'1312.6
2015-Apr-29 19:33N 32°36' W 118°38'1312.8
2015-Apr-29 18:33N 32°36' W 118°23'1414.3
2015-Apr-29 17:33N 32°35' W 118°06'1312.8
2015-Apr-29 16:33N 32°36' W 118°21'1312.8
2015-Apr-29 15:33N 32°36' W 118°37'1313.0
2015-Apr-29 14:33N 32°36' W 118°52'2 2.4
2015-Apr-29 13:33N 32°37' W 118°55'10 9.7
2015-Apr-29 12:33N 32°36' W 118°43'9 8.6
2015-Apr-29 11:33N 32°38' W 118°54'1 1.0
2015-Apr-29 10:33N 32°38' W 118°52'10 9.7
2015-Apr-29 09:33N 32°38' W 118°41'10 9.9
2015-Apr-29 08:33N 32°38' W 118°29'8 7.9
2015-Apr-29 07:33N 32°37' W 118°39'9 9.2
2015-Apr-29 06:33N 32°38' W 118°50'9 8.5
2015-Apr-29 05:33N 32°38' W 118°60'9 9.3
2015-Apr-29 04:33N 32°38' W 118°49'9 9.4
2015-Apr-29 03:33N 32°38' W 118°38'9 9.0
2015-Apr-29 02:33N 32°37' W 118°27'5 4.9
2015-Apr-29 01:33N 32°36' W 118°32'1010.0
2015-Apr-29 00:32N 32°36' W 118°45'7 7.6
2015-Apr-28 23:33N 32°35' W 118°53'1312.7
2015-Apr-28 22:33N 32°35' W 118°38'1312.7
2015-Apr-28 21:33N 32°35' W 118°23'1212.6
2015-Apr-28 20:33N 32°36' W 118°08'1211.9
2015-Apr-28 19:33N 32°36' W 117°54'1 0.5
2015-Apr-28 18:33N 32°37' W 117°54'8 8.5
2015-Apr-28 17:33N 32°38' W 117°44'6 5.7
2015-Apr-28 16:33N 32°39' W 117°37'6 6.3
2015-Apr-28 15:33N 32°39' W 117°30'6 6.3
2015-Apr-28 14:33N 32°40' W 117°23'6 6.5
2015-Apr-28 13:33N 32°47' W 117°23'6 6.3
2015-Apr-28 12:33N 32°53' W 117°24'6 6.1
2015-Apr-28 11:33N 32°59' W 117°25'5 4.6
2015-Apr-28 10:33N 32°55' W 117°24'7 6.5
2015-Apr-28 09:33N 32°48' W 117°24'6 6.2
2015-Apr-28 08:33N 32°42' W 117°23'3 2.8
2015-Apr-28 07:33N 32°44' W 117°24'7 6.6
2015-Apr-28 06:33N 32°51' W 117°25'6 6.4
2015-Apr-28 05:33N 32°57' W 117°26'1 0.9
2015-Apr-28 04:33N 32°57' W 117°26'6 6.1
2015-Apr-28 03:33N 32°51' W 117°24'6 5.6
2015-Apr-28 02:33N 32°45' W 117°23'5 5.0
2015-Apr-28 01:33N 32°40' W 117°22'7 6.9
2015-Apr-28 00:33N 32°47' W 117°25'7 7.0
2015-Apr-27 23:34N 32°53' W 117°28'6 6.4
2015-Apr-27 22:33N 32°59' W 117°31'5 4.8
2015-Apr-27 21:33N 32°55' W 117°28'6 5.8
2015-Apr-27 20:33N 32°49' W 117°26'3 3.0
2015-Apr-27 19:33N 32°47' W 117°24'2 1.7
2015-Apr-27 18:33N 32°45' W 117°24'2 2.3
2015-Apr-27 17:33N 32°47' W 117°23'6 6.2
2015-Apr-27 16:33N 32°54' W 117°25'6 5.9
2015-Apr-27 15:33N 32°59' W 117°26'6 5.6
2015-Apr-27 14:33N 32°54' W 117°24'6 6.4
2015-Apr-27 13:33N 32°47' W 117°24'6 6.2
2015-Apr-27 12:33N 32°41' W 117°22'4 3.7
2015-Apr-27 11:33N 32°45' W 117°24'6 6.1
2015-Apr-27 10:33N 32°51' W 117°25'6 6.1
2015-Apr-27 09:33N 32°57' W 117°26'1 0.8
2015-Apr-27 08:33N 32°58' W 117°27'6 6.4
2015-Apr-27 07:33N 32°51' W 117°25'6 6.0
2015-Apr-27 06:33N 32°45' W 117°24'4 4.2
2015-Apr-27 05:33N 32°42' W 117°26'7 6.6
2015-Apr-27 04:33N 32°41' W 117°34'7 6.8
2015-Apr-27 03:33N 32°40' W 117°42'7 6.7
2015-Apr-27 02:33N 32°39' W 117°50'7 6.6
2015-Apr-27 01:32N 32°38' W 117°58'6 6.5
2015-Apr-27 00:33N 32°37' W 118°05'6 6.1
2015-Apr-26 23:33N 32°36' W 118°12'1918.0
2015-Apr-26 22:29N 32°35' W 118°35'2 1.9
2015-Apr-26 21:10N 32°36' W 118°32'812.7
2015-Apr-26 20:33N 32°36' W 118°23'1313.1
2015-Apr-26 19:33N 32°36' W 118°08'6 5.3
2015-Apr-26 18:24N 32°36' W 118°00'8 8.9
2015-Apr-26 17:33N 32°35' W 118°09'1211.3
2015-Apr-26 16:31N 32°35' W 118°23'  

Dump ship's entire track history